createdAt,value
2019-03-22T00:00:21.128Z,103178.55
2019-03-22T00:03:19.248Z,103178.56
2019-03-22T00:06:01.995Z,103173.52
2019-03-22T00:08:36.266Z,103175.37
2019-03-22T00:11:10.664Z,103182.27
2019-03-22T00:13:44.454Z,103185.82
2019-03-22T00:16:27.595Z,103171.20
2019-03-22T00:19:03.636Z,103168.17
2019-03-22T00:21:38.011Z,103169.16
2019-03-22T00:24:20.497Z,103161.23
2019-03-22T00:26:56.028Z,103160.07
2019-03-22T00:29:40.482Z,103152.17
2019-03-22T00:32:14.504Z,103154.38
2019-03-22T00:34:49.639Z,103149.84
2019-03-22T00:37:23.695Z,103152.04
2019-03-22T00:40:07.280Z,103153.88
2019-03-22T00:42:42.190Z,103153.00
2019-03-22T00:45:16.608Z,103145.30
2019-03-22T00:47:50.681Z,103143.95
2019-03-22T00:50:33.251Z,103139.56
2019-03-22T00:53:07.337Z,103142.27
2019-03-22T00:55:51.614Z,103145.98
2019-03-22T00:58:25.844Z,103146.67
2019-03-22T01:01:00.451Z,103144.30
2019-03-22T01:03:34.601Z,103143.66
2019-03-22T01:06:09.304Z,103145.66
2019-03-22T01:08:43.677Z,103140.11
2019-03-22T01:11:26.687Z,103138.59
2019-03-22T01:14:13.230Z,103136.74
2019-03-22T01:17:01.637Z,103138.59
2019-03-22T01:19:38.566Z,103137.42
2019-03-22T01:22:22.330Z,103139.77
2019-03-22T01:24:56.846Z,103145.30
2019-03-22T01:27:41.073Z,103143.81
2019-03-22T01:30:16.317Z,103147.67
2019-03-22T01:32:58.980Z,103144.14
2019-03-22T01:35:32.768Z,103138.95
2019-03-22T01:38:16.235Z,103149.19
2019-03-22T01:40:50.328Z,103143.97
2019-03-22T01:43:24.267Z,103146.66
2019-03-22T01:46:07.501Z,103154.74
2019-03-22T01:48:51.300Z,103158.77
2019-03-22T01:51:25.353Z,103163.98
2019-03-22T01:54:08.135Z,103160.45
2019-03-22T01:56:51.420Z,103163.45
2019-03-22T01:59:25.077Z,103155.06
2019-03-22T02:01:59.156Z,103158.27
2019-03-22T02:04:33.108Z,103160.77
2019-03-22T02:07:07.482Z,103145.16
2019-03-22T02:09:41.891Z,103146.52
2019-03-22T02:12:15.937Z,103151.36
2019-03-22T02:14:59.355Z,103158.10
2019-03-22T02:17:33.014Z,103157.09
2019-03-22T02:20:07.216Z,103152.72
2019-03-22T02:22:41.017Z,103149.35
2019-03-22T02:25:24.647Z,103147.50
2019-03-22T02:28:04.033Z,103144.64
2019-03-22T02:30:44.105Z,103138.11
2019-03-22T02:33:18.431Z,103140.12
2019-03-22T02:35:53.203Z,103139.60
2019-03-22T02:38:27.499Z,103140.30
2019-03-22T02:41:19.054Z,103130.36
2019-03-22T02:43:54.924Z,103136.09
2019-03-22T02:46:29.249Z,103131.89
2019-03-22T02:49:19.294Z,103124.98
2019-03-22T02:51:54.405Z,103129.86
2019-03-22T02:54:28.446Z,103128.52
2019-03-22T02:57:11.935Z,103116.45
2019-03-22T02:59:46.186Z,103120.80
2019-03-22T03:02:21.875Z,103116.77
2019-03-22T03:05:04.638Z,103123.81
2019-03-22T03:07:47.802Z,103121.80
2019-03-22T03:10:30.107Z,103115.40
2019-03-22T03:13:03.851Z,103123.96
2019-03-22T03:15:47.210Z,103122.13
2019-03-22T03:18:20.891Z,103118.45
2019-03-22T03:20:55.591Z,103115.09
2019-03-22T03:23:45.072Z,103109.54
2019-03-22T03:26:20.701Z,103112.42
2019-03-22T03:28:54.654Z,103109.73
2019-03-22T03:31:28.734Z,103098.81
2019-03-22T03:34:11.395Z,103097.63
2019-03-22T03:37:04.371Z,103100.14
2019-03-22T03:39:48.618Z,103106.34
2019-03-22T03:42:31.519Z,103106.52
2019-03-22T03:45:31.035Z,103108.03
2019-03-22T03:48:05.568Z,103112.73
2019-03-22T03:50:54.410Z,103096.47
2019-03-22T03:53:40.285Z,103091.59
2019-03-22T03:56:14.019Z,103093.28
2019-03-22T03:58:52.759Z,103088.56
2019-03-22T04:01:22.863Z,103085.22
2019-03-22T04:03:57.525Z,103091.25
2019-03-22T04:06:39.999Z,103079.50
2019-03-22T04:09:24.746Z,103078.50
2019-03-22T04:12:11.778Z,103082.51
2019-03-22T04:14:55.570Z,103089.92
2019-03-22T04:17:28.926Z,103093.94
2019-03-22T04:20:03.222Z,103093.59
2019-03-22T04:22:45.755Z,103086.56
2019-03-22T04:25:20.223Z,103091.08
2019-03-22T04:27:54.307Z,103085.22
2019-03-22T04:30:28.590Z,103090.27
2019-03-22T04:33:11.429Z,103082.19
2019-03-22T04:36:01.142Z,103094.30
2019-03-22T04:38:35.271Z,103101.83
2019-03-22T04:41:19.350Z,103100.67
2019-03-22T04:43:54.390Z,103102.00
2019-03-22T04:46:29.293Z,103100.98
2019-03-22T04:49:03.766Z,103104.70
2019-03-22T04:51:47.759Z,103105.36
2019-03-22T04:54:21.880Z,103099.64
2019-03-22T04:57:10.880Z,103110.55
2019-03-22T04:59:49.275Z,103108.05
2019-03-22T05:02:23.222Z,103105.84
2019-03-22T05:04:59.616Z,103122.73
2019-03-22T05:07:34.857Z,103125.23
2019-03-22T05:10:11.816Z,103135.13
2019-03-22T05:12:47.043Z,103134.05
2019-03-22T05:15:25.405Z,103132.00
2019-03-22T05:18:01.117Z,103144.36
2019-03-22T05:20:36.517Z,103142.37
2019-03-22T05:23:22.653Z,103137.59
2019-03-22T05:26:13.507Z,103150.99
2019-03-22T05:28:59.721Z,103159.39
2019-03-22T05:32:00.774Z,103165.02
2019-03-22T05:34:36.108Z,103162.27
2019-03-22T05:37:16.708Z,103159.22
2019-03-22T05:39:59.897Z,103152.44
2019-03-22T05:42:33.973Z,103155.42
2019-03-22T05:45:08.068Z,103160.38
2019-03-22T05:47:42.247Z,103162.01
2019-03-22T05:50:24.766Z,103155.07
2019-03-22T05:52:59.065Z,103150.48
2019-03-22T05:55:33.167Z,103158.72
2019-03-22T05:58:09.287Z,103158.09
2019-03-22T06:00:43.516Z,103163.64
2019-03-22T06:03:18.768Z,103165.67
2019-03-22T06:05:52.834Z,103170.02
2019-03-22T06:08:36.949Z,103173.00
2019-03-22T06:11:10.621Z,103178.11
2019-03-22T06:13:49.822Z,103180.47
2019-03-22T06:16:25.370Z,103180.60
2019-03-22T06:19:02.831Z,103187.17
2019-03-22T06:21:37.560Z,103174.58
2019-03-22T06:24:11.253Z,103170.23
2019-03-22T06:26:45.930Z,103175.78
2019-03-22T06:29:20.798Z,103183.72
2019-03-22T06:32:12.948Z,103173.88
2019-03-22T06:34:47.130Z,103173.53
2019-03-22T06:37:21.976Z,103162.14
2019-03-22T06:39:55.985Z,103163.34
2019-03-22T06:42:30.174Z,103161.16
2019-03-22T06:45:13.339Z,103165.56
2019-03-22T06:48:01.941Z,103161.20
2019-03-22T06:50:38.442Z,103159.86
2019-03-22T06:53:12.523Z,103162.56
2019-03-22T06:55:56.495Z,103153.75
2019-03-22T06:58:34.787Z,103156.44
2019-03-22T07:01:09.861Z,103164.50
2019-03-22T07:03:43.565Z,103168.75
2019-03-22T07:06:18.399Z,103171.34
2019-03-22T07:08:52.738Z,103165.70
2019-03-22T07:11:26.384Z,103161.23
2019-03-22T07:14:00.361Z,103156.36
2019-03-22T07:16:49.765Z,103156.08
2019-03-22T07:19:23.616Z,103156.95
2019-03-22T07:21:57.973Z,103160.48
2019-03-22T07:24:40.806Z,103161.36
2019-03-22T07:27:24.229Z,103150.49
2019-03-22T07:29:59.003Z,103153.52
2019-03-22T07:32:41.689Z,103151.70
2019-03-22T07:35:26.630Z,103152.02
2019-03-22T07:38:09.087Z,103159.10
2019-03-22T07:40:44.466Z,103158.10
2019-03-22T07:43:32.736Z,103160.77
2019-03-22T07:46:07.756Z,103158.59
2019-03-22T07:48:42.490Z,103157.76
2019-03-22T07:51:29.853Z,103149.68
2019-03-22T07:54:22.091Z,103154.73
2019-03-22T07:57:05.531Z,103155.05
2019-03-22T07:59:39.837Z,103152.70
2019-03-22T08:02:13.600Z,103157.88
2019-03-22T08:04:58.115Z,103155.17
2019-03-22T08:07:40.799Z,103158.69
2019-03-22T08:10:25.677Z,103150.94
2019-03-22T08:13:00.863Z,103148.75
2019-03-22T08:15:34.932Z,103141.17
2019-03-22T08:18:17.449Z,103142.13
2019-03-22T08:21:01.136Z,103137.09
2019-03-22T08:23:34.862Z,103138.11
2019-03-22T08:26:09.549Z,103138.05
2019-03-22T08:28:42.938Z,103131.09
2019-03-22T08:31:25.901Z,103131.86
2019-03-22T08:34:09.748Z,103129.78
2019-03-22T08:36:54.310Z,103130.23
2019-03-22T08:39:28.815Z,103126.66
2019-03-22T08:42:02.475Z,103125.42
2019-03-22T08:44:36.900Z,103118.64
2019-03-22T08:47:19.642Z,103118.45
2019-03-22T08:49:55.194Z,103112.73
2019-03-22T08:52:37.774Z,103108.67
2019-03-22T08:55:30.043Z,103114.25
2019-03-22T08:58:20.152Z,103112.23
2019-03-22T09:00:57.834Z,103115.08
2019-03-22T09:03:30.591Z,103114.31
2019-03-22T09:06:04.230Z,103109.41
2019-03-22T09:08:38.002Z,103108.92
2019-03-22T09:11:20.782Z,103105.77
2019-03-22T09:14:04.568Z,103096.34
2019-03-22T09:16:39.145Z,103099.56
2019-03-22T09:19:21.653Z,103091.52
2019-03-22T09:21:56.168Z,103099.67
2019-03-22T09:24:38.985Z,103103.06
2019-03-22T09:27:06.750Z,103100.11
2019-03-22T09:29:41.242Z,103104.36
2019-03-22T09:32:23.861Z,103097.72
2019-03-22T09:35:07.324Z,103097.23
2019-03-22T09:37:41.357Z,103093.19
2019-03-22T09:40:24.919Z,103087.30
2019-03-22T09:43:00.205Z,103076.70
2019-03-22T09:45:43.265Z,103062.22
2019-03-22T09:48:17.963Z,103059.59
2019-03-22T09:51:02.881Z,103050.17
2019-03-22T09:53:38.384Z,103055.27
2019-03-22T09:56:13.232Z,103051.67
2019-03-22T09:58:46.877Z,103050.95
2019-03-22T10:01:24.010Z,103050.14
2019-03-22T10:03:56.592Z,103047.23
2019-03-22T10:06:30.238Z,103041.60
2019-03-22T10:09:13.765Z,103045.37
2019-03-22T10:11:48.501Z,103043.00
2019-03-22T10:14:31.811Z,103029.96
2019-03-22T10:17:05.667Z,103030.33
2019-03-22T10:19:42.176Z,103021.47
2019-03-22T10:22:25.768Z,103019.28
2019-03-22T10:24:59.824Z,103019.34
2019-03-22T10:27:43.026Z,103019.48
2019-03-22T10:30:18.082Z,103020.63
2019-03-22T10:33:00.824Z,103015.12
2019-03-22T10:35:44.222Z,103016.63
2019-03-22T10:38:30.662Z,103016.07
2019-03-22T10:40:53.552Z,103005.56
2019-03-22T10:43:27.562Z,103004.75
2019-03-22T10:46:10.410Z,102999.33
2019-03-22T10:48:59.807Z,103001.22
2019-03-22T10:51:34.254Z,103000.39
2019-03-22T10:54:18.347Z,102993.28
2019-03-22T10:56:52.435Z,102989.02
2019-03-22T10:59:35.904Z,102978.31
2019-03-22T11:02:10.398Z,102974.77
2019-03-22T11:04:54.176Z,102969.94
2019-03-22T11:07:28.227Z,102969.63
2019-03-22T11:10:02.573Z,102974.09
2019-03-22T11:12:36.364Z,102964.52
2019-03-22T11:15:10.785Z,102957.64
2019-03-22T11:17:53.955Z,102961.59
2019-03-22T11:20:37.060Z,102949.15
2019-03-22T11:23:10.834Z,102955.13
2019-03-22T11:25:44.482Z,102955.13
2019-03-22T11:28:18.144Z,102943.77
2019-03-22T11:30:52.015Z,102943.77
2019-03-22T11:33:26.928Z,102942.78
2019-03-22T11:36:01.345Z,102933.31
2019-03-22T11:38:35.556Z,102928.06
2019-03-22T11:41:09.572Z,102929.09
2019-03-22T11:43:43.253Z,102921.30
2019-03-22T11:46:17.796Z,102916.39
2019-03-22T11:48:52.306Z,102903.98
2019-03-22T11:51:26.004Z,102899.58
2019-03-22T11:53:59.986Z,102893.77
2019-03-22T11:56:33.903Z,102886.09
2019-03-22T11:59:07.695Z,102889.50
2019-03-22T12:01:41.994Z,102880.06
2019-03-22T12:04:16.959Z,102880.06
2019-03-22T12:06:50.605Z,102884.77
2019-03-22T12:09:24.613Z,102876.44
2019-03-22T12:12:07.606Z,102868.64
2019-03-22T12:14:50.120Z,102862.88
2019-03-22T12:17:23.812Z,102864.05
2019-03-22T12:20:14.255Z,102861.64
2019-03-22T12:23:04.259Z,102857.69
2019-03-22T12:25:38.332Z,102854.66
2019-03-22T12:28:27.428Z,102851.38
2019-03-22T12:31:10.798Z,102855.44
2019-03-22T12:33:44.454Z,102853.91
2019-03-22T12:36:19.040Z,102851.02
2019-03-22T12:39:03.460Z,102843.72
2019-03-22T12:41:46.376Z,102845.20
2019-03-22T12:44:29.315Z,102832.44
2019-03-22T12:47:12.047Z,102839.38
2019-03-22T12:49:54.681Z,102836.61
2019-03-22T12:52:38.126Z,102818.38
2019-03-22T12:55:12.542Z,102813.92
2019-03-22T12:57:46.185Z,102809.23
2019-03-22T13:00:21.783Z,102807.35
2019-03-22T13:03:04.311Z,102804.55
2019-03-22T13:05:38.021Z,102802.49
2019-03-22T13:08:21.468Z,102794.52
2019-03-22T13:10:55.126Z,102795.07
2019-03-22T13:13:29.114Z,102789.50
2019-03-22T13:16:03.866Z,102788.84
2019-03-22T13:18:37.959Z,102782.14
2019-03-22T13:21:12.129Z,102773.51
2019-03-22T13:23:55.338Z,102770.16
2019-03-22T13:26:38.335Z,102764.59
2019-03-22T13:29:12.006Z,102765.00
2019-03-22T13:31:47.590Z,102764.94
2019-03-22T13:34:21.750Z,102765.19
2019-03-22T13:37:10.878Z,102755.86
2019-03-22T13:39:53.860Z,102754.45
2019-03-22T13:42:39.059Z,102748.13
2019-03-22T13:45:22.246Z,102737.16
2019-03-22T13:47:55.986Z,102748.02
2019-03-22T13:50:29.792Z,102743.78
2019-03-22T13:53:03.476Z,102739.66
2019-03-22T13:55:37.273Z,102736.98
2019-03-22T13:58:12.435Z,102735.82
2019-03-22T14:00:46.076Z,102737.78
2019-03-22T14:03:19.882Z,102734.57
2019-03-22T14:05:54.699Z,102722.23
2019-03-22T14:08:28.372Z,102715.50
2019-03-22T14:11:02.359Z,102711.41
2019-03-22T14:13:36.604Z,102711.70
2019-03-22T14:16:13.128Z,102716.36
2019-03-22T14:18:55.966Z,102705.31
2019-03-22T14:21:46.891Z,102704.86
2019-03-22T14:24:21.060Z,102703.58
2019-03-22T14:26:55.043Z,102702.21
2019-03-22T14:29:37.856Z,102697.09
2019-03-22T14:32:21.394Z,102693.41
2019-03-22T14:34:55.801Z,102689.32
2019-03-22T14:37:29.951Z,102698.07
2019-03-22T14:40:04.196Z,102693.66
2019-03-22T14:42:37.860Z,102689.48
2019-03-22T14:45:12.420Z,102688.77
2019-03-22T14:47:46.087Z,102678.06
2019-03-22T14:50:20.987Z,102672.72
2019-03-22T14:53:05.230Z,102664.76
2019-03-22T14:55:48.184Z,102663.03
2019-03-22T14:58:34.542Z,102657.89
2019-03-22T15:01:24.022Z,102646.47
2019-03-22T15:03:58.725Z,102648.73
2019-03-22T15:06:43.347Z,102649.55
2019-03-22T15:09:17.010Z,102635.88
2019-03-22T15:11:50.649Z,102635.83
2019-03-22T15:14:46.431Z,102626.03
2019-03-22T15:17:48.965Z,102627.19
2019-03-22T15:20:45.746Z,102626.28
2019-03-22T15:23:40.067Z,102627.78
2019-03-22T15:26:31.589Z,102609.09
2019-03-22T15:29:36.720Z,102604.09
2019-03-22T15:32:52.908Z,102604.84
2019-03-22T15:35:53.032Z,102598.66
2019-03-22T15:38:55.981Z,102596.69
2019-03-22T15:41:52.836Z,102582.75
2019-03-22T15:44:26.932Z,102580.27
2019-03-22T15:47:00.882Z,102584.27
2019-03-22T15:49:35.613Z,102580.39
2019-03-22T15:52:09.443Z,102582.70
2019-03-22T15:54:44.883Z,102587.51
2019-03-22T15:57:19.292Z,102577.04
2019-03-22T15:59:53.687Z,102567.75
2019-03-22T16:02:27.717Z,102563.67
2019-03-22T16:05:15.949Z,102566.64
2019-03-22T16:08:01.015Z,102560.38
2019-03-22T16:10:36.685Z,102565.36
2019-03-22T16:13:12.391Z,102553.97
2019-03-22T16:15:57.955Z,102555.39
2019-03-22T16:18:31.604Z,102553.10
2019-03-22T16:21:05.611Z,102553.84
2019-03-22T16:23:48.959Z,102544.83
2019-03-22T16:26:33.010Z,102536.57
2019-03-22T16:29:17.853Z,102544.36
2019-03-22T16:31:57.866Z,102537.69
2019-03-22T16:34:41.852Z,102547.46
2019-03-22T16:37:17.397Z,102545.78
2019-03-22T16:40:04.600Z,102539.98
2019-03-22T16:42:47.197Z,102541.88
2019-03-22T16:45:40.154Z,102542.64
2019-03-22T16:48:14.906Z,102542.50
2019-03-22T16:51:04.717Z,102534.67
2019-03-22T16:53:39.568Z,102534.73
2019-03-22T16:56:12.894Z,102529.83
2019-03-22T16:58:47.984Z,102526.08
2019-03-22T17:01:21.958Z,102529.16
2019-03-22T17:04:04.038Z,102524.64
2019-03-22T17:06:47.579Z,102524.20
2019-03-22T17:09:22.627Z,102519.56
2019-03-22T17:12:06.363Z,102520.96
2019-03-22T17:14:40.379Z,102521.41
2019-03-22T17:17:23.072Z,102526.16
2019-03-22T17:20:08.065Z,102521.37
2019-03-22T17:22:41.923Z,102516.14
2019-03-22T17:25:15.607Z,102524.06
2019-03-22T17:27:50.083Z,102518.93
2019-03-22T17:30:32.700Z,102519.16
2019-03-22T17:33:07.972Z,102518.05
2019-03-22T17:35:51.196Z,102521.37
2019-03-22T17:38:38.177Z,102526.78
2019-03-22T17:41:26.613Z,102517.12
2019-03-22T17:44:10.880Z,102512.19
2019-03-22T17:46:57.185Z,102505.84
2019-03-22T17:49:47.802Z,102501.74
2019-03-22T17:52:17.008Z,102501.74
2019-03-22T17:55:02.436Z,102507.70
2019-03-22T17:57:36.889Z,102504.33
2019-03-22T18:00:23.859Z,102502.66
2019-03-22T18:03:00.160Z,102500.87
2019-03-22T18:05:35.167Z,102511.33
2019-03-22T18:08:09.589Z,102506.08
2019-03-22T18:10:44.232Z,102507.50
2019-03-22T18:13:20.317Z,102513.03
2019-03-22T18:16:02.998Z,102513.66
2019-03-22T18:18:46.568Z,102514.50
2019-03-22T18:21:21.742Z,102517.56
2019-03-22T18:24:06.695Z,102518.36
2019-03-22T18:26:41.963Z,102517.56
2019-03-22T18:29:16.354Z,102519.20
2019-03-22T18:31:58.826Z,102521.11
2019-03-22T18:34:47.584Z,102520.42
2019-03-22T18:37:32.471Z,102529.69
2019-03-22T18:40:15.570Z,102523.84
2019-03-22T18:42:50.568Z,102528.28
2019-03-22T18:45:25.296Z,102524.02
2019-03-22T18:47:59.264Z,102533.67
2019-03-22T18:50:42.147Z,102530.12
2019-03-22T18:53:25.582Z,102528.44
2019-03-22T18:56:02.014Z,102527.98
2019-03-22T18:58:35.781Z,102528.05
2019-03-22T19:01:12.975Z,102526.15
2019-03-22T19:03:47.680Z,102522.61
2019-03-22T19:06:22.822Z,102525.37
2019-03-22T19:08:56.566Z,102519.69
2019-03-22T19:11:32.758Z,102523.17
2019-03-22T19:14:16.865Z,102517.16
2019-03-22T19:16:51.919Z,102517.25
2019-03-22T19:19:25.711Z,102516.18
2019-03-22T19:21:59.977Z,102516.34
2019-03-22T19:24:34.724Z,102515.13
2019-03-22T19:27:18.973Z,102518.23
2019-03-22T19:29:52.929Z,102521.63
2019-03-22T19:32:36.172Z,102512.80
2019-03-22T19:35:19.101Z,102511.95
2019-03-22T19:38:05.160Z,102512.51
2019-03-22T19:40:47.986Z,102510.01
2019-03-22T19:43:32.439Z,102512.98
2019-03-22T19:46:14.923Z,102516.49
2019-03-22T19:48:48.599Z,102515.69
2019-03-22T19:51:32.832Z,102511.66
2019-03-22T19:54:07.555Z,102517.80
2019-03-22T19:56:41.724Z,102515.48
2019-03-22T19:59:15.485Z,102512.48
2019-03-22T20:02:04.615Z,102507.87
2019-03-22T20:04:47.481Z,102502.88
2019-03-22T20:07:31.146Z,102501.97
2019-03-22T20:10:06.659Z,102501.12
2019-03-22T20:12:41.352Z,102502.59
2019-03-22T20:15:16.462Z,102493.67
2019-03-22T20:17:51.004Z,102499.83
2019-03-22T20:20:36.145Z,102502.78
2019-03-22T20:23:18.597Z,102499.50
2019-03-22T20:25:51.173Z,102501.92
2019-03-22T20:28:25.502Z,102497.96
2019-03-22T20:31:12.390Z,102503.41
2019-03-22T20:33:46.062Z,102492.25
2019-03-22T20:36:35.669Z,102496.77
2019-03-22T20:39:11.626Z,102492.33
2019-03-22T20:41:45.990Z,102489.12
2019-03-22T20:44:20.402Z,102492.75
2019-03-22T20:46:55.137Z,102485.09
2019-03-22T20:49:29.587Z,102486.88
2019-03-22T20:52:14.190Z,102493.82
2019-03-22T20:55:00.581Z,102486.06
2019-03-22T20:57:33.974Z,102491.02
2019-03-22T21:00:17.215Z,102478.59
2019-03-22T21:02:51.322Z,102484.43
2019-03-22T21:05:27.083Z,102478.38
2019-03-22T21:08:10.385Z,102474.83
2019-03-22T21:10:45.539Z,102472.34
2019-03-22T21:13:19.974Z,102470.39
2019-03-22T21:15:54.178Z,102465.78
2019-03-22T21:18:47.547Z,102465.45
2019-03-22T21:21:36.698Z,102465.22
2019-03-22T21:24:08.856Z,102468.69
2019-03-22T21:26:44.263Z,102459.61
2019-03-22T21:29:18.327Z,102463.80
2019-03-22T21:32:02.456Z,102459.47
2019-03-22T21:34:43.883Z,102455.02
2019-03-22T21:37:17.750Z,102452.53
2019-03-22T21:39:51.763Z,102450.61
2019-03-22T21:42:26.401Z,102449.08
2019-03-22T21:45:00.921Z,102443.33
2019-03-22T21:47:40.070Z,102443.70
2019-03-22T21:50:14.374Z,102443.42
2019-03-22T21:52:49.494Z,102437.04
2019-03-22T21:55:24.687Z,102438.09
2019-03-22T21:57:58.752Z,102432.53
2019-03-22T22:00:42.259Z,102424.97
2019-03-22T22:03:20.435Z,102422.38
2019-03-22T22:06:05.568Z,102421.55
2019-03-22T22:08:41.591Z,102406.50
2019-03-22T22:11:27.570Z,102403.11
2019-03-22T22:14:03.309Z,102404.15
2019-03-22T22:16:47.417Z,102393.86
2019-03-22T22:19:22.461Z,102397.88
2019-03-22T22:21:57.260Z,102391.64
2019-03-22T22:24:33.727Z,102393.13
2019-03-22T22:27:14.303Z,102396.00
2019-03-22T22:29:50.111Z,102391.12
2019-03-22T22:32:34.392Z,102385.45
2019-03-22T22:35:08.430Z,102394.70
2019-03-22T22:37:46.242Z,102387.66
2019-03-22T22:40:19.901Z,102396.96
2019-03-22T22:42:58.982Z,102391.12
2019-03-22T22:45:48.123Z,102389.59
2019-03-22T22:48:30.894Z,102387.90
2019-03-22T22:51:16.101Z,102383.89
2019-03-22T22:53:59.132Z,102375.55
2019-03-22T22:56:48.009Z,102376.94
2019-03-22T22:59:22.956Z,102371.98
2019-03-22T23:02:03.598Z,102368.02
2019-03-22T23:04:38.757Z,102370.23
2019-03-22T23:07:12.492Z,102369.94
2019-03-22T23:09:48.199Z,102373.66
2019-03-22T23:12:32.538Z,102369.64
2019-03-22T23:15:06.353Z,102370.65
2019-03-22T23:17:49.803Z,102364.28
2019-03-22T23:20:24.476Z,102370.70
2019-03-22T23:23:08.060Z,102367.34
2019-03-22T23:25:41.722Z,102367.77
2019-03-22T23:28:25.215Z,102359.95
2019-03-22T23:30:59.268Z,102364.38
2019-03-22T23:33:35.749Z,102357.70
2019-03-22T23:36:19.514Z,102362.19
2019-03-22T23:38:47.240Z,102359.25
2019-03-22T23:41:30.010Z,102357.12
2019-03-22T23:44:17.499Z,102353.95
2019-03-22T23:46:51.772Z,102352.14
2019-03-22T23:49:26.285Z,102353.73
2019-03-22T23:52:00.650Z,102348.58
2019-03-22T23:54:45.441Z,102345.59
2019-03-22T23:57:45.248Z,102345.59
